Time;durP1;ratioP1;P1;durP2;ratioP2;P2;SDS_P1;SDS_P2;PMS_P1;PMS_P2;Temp;Humidity;BMP_temperature;BMP_pressure;BME280_temperature;BME280_humidity;BME280_pressure;Samples;Min_cycle;Max_cycle;Signal;HPM_P1;HPM_P2
2022/07/29 00:00:02;;;;;;;8.13;5.27;;;24.00;1.00;;;;;;5088350;28;20239;-74
2022/07/29 00:02:27;;;;;;;6.60;5.20;;;23.90;1.00;;;;;;5082017;28;20198;-73
2022/07/29 00:04:53;;;;;;;9.10;5.47;;;23.90;1.00;;;;;;5097402;28;20429;-72
2022/07/29 00:07:19;;;;;;;10.80;5.53;;;23.80;1.00;;;;;;5090068;28;20187;-73
2022/07/29 00:09:45;;;;;;;8.07;5.07;;;23.80;1.00;;;;;;5081574;28;20262;-74
2022/07/29 00:12:11;;;;;;;6.67;5.27;;;23.70;1.00;;;;;;5080510;28;20574;-72
2022/07/29 00:14:36;;;;;;;8.50;5.67;;;23.70;1.00;;;;;;5078697;28;20184;-72
2022/07/29 00:17:02;;;;;;;9.40;5.77;;;23.60;1.00;;;;;;5092095;28;20197;-72
2022/07/29 00:19:27;;;;;;;6.70;5.70;;;23.60;1.00;;;;;;5090869;28;20189;-73
2022/07/29 00:21:53;;;;;;;6.57;5.40;;;23.50;1.00;;;;;;5086232;28;20709;-72
2022/07/29 00:24:18;;;;;;;8.63;6.20;;;23.50;1.00;;;;;;5090032;28;20545;-72
2022/07/29 00:26:44;;;;;;;6.40;5.80;;;23.40;1.00;;;;;;5088515;28;20589;-72
2022/07/29 00:29:09;;;;;;;6.53;5.83;;;23.30;1.00;;;;;;5089326;28;20171;-73
2022/07/29 00:31:35;;;;;;;6.70;5.47;;;23.30;1.00;;;;;;5075840;28;20198;-73
2022/07/29 00:34:02;;;;;;;7.17;5.63;;;23.30;1.00;;;;;;5078921;28;20167;-72
2022/07/29 00:36:27;;;;;;;7.97;5.70;;;23.30;1.00;;;;;;5088154;28;20405;-73
2022/07/29 00:38:53;;;;;;;5.53;4.90;;;23.30;1.00;;;;;;5080862;28;20425;-72
2022/07/29 00:41:18;;;;;;;11.63;5.87;;;23.20;1.00;;;;;;5088895;28;20624;-72
2022/07/29 00:43:44;;;;;;;6.73;5.13;;;23.20;1.00;;;;;;5081729;28;20657;-72
2022/07/29 00:46:10;;;;;;;8.97;5.57;;;23.30;1.00;;;;;;5087437;28;20273;-72
2022/07/29 00:48:37;;;;;;;6.93;5.70;;;23.20;1.00;;;;;;5081488;28;20191;-73
2022/07/29 00:51:04;;;;;;;7.00;5.83;;;23.20;1.00;;;;;;5091102;28;20524;-72
2022/07/29 00:53:30;;;;;;;7.40;5.60;;;23.20;1.00;;;;;;5101213;28;20420;-74
2022/07/29 00:55:57;;;;;;;8.53;6.17;;;23.20;1.00;;;;;;5109905;28;20518;-72
2022/07/29 00:58:23;;;;;;;8.87;5.70;;;23.20;1.00;;;;;;5080525;28;20516;-73
2022/07/29 01:00:49;;;;;;;8.80;5.70;;;23.20;1.00;;;;;;5089340;28;20437;-72
2022/07/29 01:03:14;;;;;;;6.93;5.70;;;23.20;1.00;;;;;;5080620;28;20432;-72
2022/07/29 01:05:42;;;;;;;7.47;6.10;;;23.70;1.00;;;;;;5079751;28;20605;-72
2022/07/29 01:08:08;;;;;;;7.23;5.87;;;23.20;1.00;;;;;;5088828;28;20226;-73
2022/07/29 01:10:37;;;;;;;8.03;5.80;;;23.20;1.00;;;;;;5080902;28;20878;-73
2022/07/29 01:13:04;;;;;;;8.57;5.70;;;23.20;1.00;;;;;;5081173;28;20414;-73
2022/07/29 01:15:29;;;;;;;8.13;5.90;;;23.20;1.00;;;;;;5082557;28;20917;-72
2022/07/29 01:18:06;;;;;;;6.57;5.30;;;23.20;1.00;;;;;;5084126;28;20590;-73
2022/07/29 01:21:09;;;;;;;8.00;5.80;;;23.20;1.00;;;;;;5081839;28;20219;-72
2022/07/29 01:23:37;;;;;;;7.77;5.80;;;23.20;1.00;;;;;;5080893;28;20452;-73
2022/07/29 01:26:27;;;;;;;6.33;5.37;;;23.10;1.00;;;;;;5081620;28;20445;-73
2022/07/29 01:29:03;;;;;;;6.50;5.20;;;23.10;1.00;;;;;;5089949;28;20888;-73
2022/07/29 01:31:35;;;;;;;7.57;5.73;;;23.10;1.00;;;;;;5081174;28;20505;-72
2022/07/29 01:34:05;;;;;;;7.23;6.20;;;23.10;1.00;;;;;;5077766;28;20938;-72
2022/07/29 01:36:43;;;;;;;8.43;5.90;;;23.00;1.00;;;;;;5088384;28;20405;-72
2022/07/29 01:39:13;;;;;;;7.97;6.50;;;23.00;1.00;;;;;;5081167;28;20737;-72
2022/07/29 01:41:47;;;;;;;8.13;6.00;;;22.90;1.00;;;;;;5077756;28;20541;-73
2022/07/29 01:44:22;;;;;;;8.00;6.13;;;22.90;1.00;;;;;;5086793;28;20934;-73
2022/07/29 01:46:55;;;;;;;8.70;6.50;;;22.90;1.00;;;;;;5090028;28;20635;-72
2022/07/29 01:49:26;;;;;;;8.10;6.10;;;22.90;1.00;;;;;;5081431;28;20805;-73
2022/07/29 01:52:04;;;;;;;9.03;6.70;;;22.80;1.00;;;;;;5078889;28;20491;-73
2022/07/29 01:54:45;;;;;;;9.60;5.83;;;22.90;1.00;;;;;;5086615;28;20437;-72
2022/07/29 01:57:14;;;;;;;6.80;5.53;;;22.90;1.00;;;;;;5086414;28;20401;-72
2022/07/29 01:59:43;;;;;;;9.37;6.43;;;22.80;1.00;;;;;;5090309;28;20950;-73
2022/07/29 02:02:10;;;;;;;8.10;6.27;;;22.70;1.00;;;;;;5088865;28;20534;-72
2022/07/29 02:04:37;;;;;;;6.90;6.07;;;22.80;1.00;;;;;;5091979;28;20428;-72
2022/07/29 02:07:07;;;;;;;8.83;5.90;;;22.70;1.00;;;;;;5085674;28;20463;-72
2022/07/29 02:09:36;;;;;;;8.73;6.40;;;22.80;1.00;;;;;;5091717;28;20775;-73
2022/07/29 02:12:03;;;;;;;8.17;6.27;;;22.70;1.00;;;;;;5083962;28;20460;-72
2022/07/29 02:14:36;;;;;;;7.07;5.90;;;22.70;1.00;;;;;;5093190;28;20428;-72
2022/07/29 02:17:03;;;;;;;8.57;5.97;;;22.60;1.00;;;;;;5075169;28;20433;-73
2022/07/29 02:19:31;;;;;;;7.60;6.00;;;22.60;1.00;;;;;;5093965;28;20496;-72
2022/07/29 02:21:59;;;;;;;9.13;6.00;;;22.60;1.00;;;;;;5084841;28;20456;-73
2022/07/29 02:24:26;;;;;;;12.07;6.70;;;22.60;1.00;;;;;;5092694;28;20421;-73
2022/07/29 02:26:54;;;;;;;8.57;6.27;;;22.50;1.00;;;;;;5088173;28;20522;-72
2022/07/29 02:29:23;;;;;;;7.97;6.33;;;22.40;1.00;;;;;;5092473;28;20421;-73
2022/07/29 02:31:50;;;;;;;7.60;5.70;;;22.40;1.00;;;;;;5085134;28;20525;-72
2022/07/29 02:34:16;;;;;;;7.37;6.10;;;22.40;1.00;;;;;;5093081;28;20405;-75
2022/07/29 02:36:44;;;;;;;7.17;6.30;;;22.30;1.00;;;;;;5086905;28;20444;-75
2022/07/29 02:39:11;;;;;;;7.40;6.60;;;22.30;1.00;;;;;;5092431;28;20452;-75
2022/07/29 02:41:46;;;;;;;7.73;6.10;;;22.50;1.00;;;;;;5086372;28;20511;-75
2022/07/29 02:44:18;;;;;;;7.37;6.30;;;22.30;1.00;;;;;;5092434;28;20424;-75
2022/07/29 02:46:52;;;;;;;7.60;6.20;;;22.30;1.00;;;;;;5087216;28;20430;-75
2022/07/29 02:49:20;;;;;;;7.77;6.07;;;22.30;1.00;;;;;;5092575;28;20423;-76
2022/07/29 02:51:52;;;;;;;9.30;6.43;;;22.20;1.00;;;;;;5078307;28;20453;-76
2022/07/29 02:54:40;;;;;;;8.30;5.93;;;22.20;1.00;;;;;;5091566;28;20780;-75
2022/07/29 02:57:14;;;;;;;9.33;6.57;;;22.20;1.00;;;;;;5084025;28;20441;-76
2022/07/29 02:59:42;;;;;;;6.93;5.80;;;22.20;1.00;;;;;;5084364;28;20417;-74
2022/07/29 03:02:09;;;;;;;7.00;6.30;;;22.10;1.00;;;;;;5087983;28;21017;-75
2022/07/29 03:04:37;;;;;;;7.87;5.80;;;22.10;1.00;;;;;;5092375;28;20439;-75
2022/07/29 03:07:04;;;;;;;7.57;5.80;;;22.10;1.00;;;;;;5079685;28;20464;-75
2022/07/29 03:09:31;;;;;;;8.27;6.47;;;22.30;1.00;;;;;;5090217;28;20987;-75
2022/07/29 03:11:57;;;;;;;6.67;5.60;;;22.10;1.00;;;;;;5084921;28;20511;-76
2022/07/29 03:14:23;;;;;;;10.00;6.40;;;22.10;1.00;;;;;;5086423;28;20814;-75
2022/07/29 03:16:50;;;;;;;8.30;5.97;;;22.10;1.00;;;;;;5087387;28;20168;-75
2022/07/29 03:19:17;;;;;;;8.03;6.30;;;22.10;1.00;;;;;;5092142;28;20407;-75
2022/07/29 03:21:42;;;;;;;7.00;5.90;;;22.30;1.00;;;;;;5087386;28;20492;-75
2022/07/29 03:24:08;;;;;;;7.83;5.90;;;22.10;1.00;;;;;;5090233;28;20449;-75
2022/07/29 03:26:33;;;;;;;6.80;6.10;;;22.20;1.00;;;;;;5079975;28;20382;-75
2022/07/29 03:28:59;;;;;;;9.73;5.70;;;22.20;1.00;;;;;;5092030;28;20171;-75
2022/07/29 03:31:25;;;;;;;7.73;5.50;;;22.20;1.00;;;;;;5080360;28;20191;-75
2022/07/29 03:33:51;;;;;;;7.50;6.00;;;22.20;1.00;;;;;;5094144;28;20409;-74
2022/07/29 03:36:16;;;;;;;7.57;6.10;;;22.30;1.00;;;;;;5088717;28;20189;-76
2022/07/29 03:38:44;;;;;;;7.07;6.00;;;22.30;1.00;;;;;;5086435;28;20186;-75
2022/07/29 03:41:11;;;;;;;6.60;5.80;;;22.30;1.00;;;;;;5075830;28;20243;-75
2022/07/29 03:43:39;;;;;;;9.17;5.60;;;22.30;1.00;;;;;;5090277;28;20402;-75
2022/07/29 03:46:08;;;;;;;7.07;5.87;;;22.30;1.00;;;;;;5083189;28;20433;-75
2022/07/29 03:48:38;;;;;;;6.80;5.83;;;22.30;1.00;;;;;;5089145;28;20472;-75
2022/07/29 03:51:04;;;;;;;5.93;5.33;;;22.50;1.00;;;;;;5073495;28;20468;-75
2022/07/29 03:53:29;;;;;;;7.73;5.83;;;22.30;1.00;;;;;;5088630;28;20569;-76
2022/07/29 03:56:01;;;;;;;7.30;5.97;;;22.30;1.00;;;;;;5080652;28;20168;-75
2022/07/29 03:58:29;;;;;;;7.27;6.40;;;22.40;1.00;;;;;;5085978;28;20209;-75
2022/07/29 04:00:56;;;;;;;7.63;6.00;;;22.30;1.00;;;;;;5083112;28;20950;-74
2022/07/29 04:03:22;;;;;;;9.30;5.67;;;22.30;1.00;;;;;;5095293;28;20437;-75
2022/07/29 04:06:02;;;;;;;6.03;5.10;;;22.30;1.00;;;;;;5087598;28;20496;-75
2022/07/29 04:08:28;;;;;;;7.50;6.20;;;22.30;1.00;;;;;;5085215;28;20516;-75
2022/07/29 04:10:54;;;;;;;7.33;5.87;;;22.30;1.00;;;;;;5085880;28;20555;-74
2022/07/29 04:13:20;;;;;;;6.90;5.80;;;22.20;1.00;;;;;;5085018;28;20187;-74
2022/07/29 04:15:46;;;;;;;7.80;5.90;;;22.20;1.00;;;;;;5086543;28;20207;-75
2022/07/29 04:18:11;;;;;;;7.00;6.00;;;22.10;1.00;;;;;;5083172;28;20479;-73
2022/07/29 04:20:37;;;;;;;7.17;5.60;;;22.10;1.00;;;;;;5090337;28;20191;-74
2022/07/29 04:23:02;;;;;;;9.73;6.43;;;22.10;1.00;;;;;;5080701;28;20191;-74
2022/07/29 04:25:28;;;;;;;7.70;6.10;;;22.10;1.00;;;;;;5088952;28;20168;-74
2022/07/29 04:28:02;;;;;;;9.50;6.40;;;22.10;1.00;;;;;;5081675;28;20203;-74
2022/07/29 04:30:29;;;;;;;9.67;6.13;;;22.00;1.00;;;;;;5089731;28;20194;-74
2022/07/29 04:32:55;;;;;;;8.40;5.87;;;22.00;1.00;;;;;;5078807;28;20448;-74
2022/07/29 04:35:21;;;;;;;7.40;5.97;;;22.00;1.00;;;;;;5084954;28;20409;-74
2022/07/29 04:37:46;;;;;;;8.47;5.77;;;22.00;1.00;;;;;;5086931;28;20530;-74
2022/07/29 04:40:12;;;;;;;7.70;5.73;;;22.00;1.00;;;;;;5088363;28;20286;-76
2022/07/29 04:42:38;;;;;;;7.93;6.30;;;22.10;1.00;;;;;;5086271;28;20190;-75
2022/07/29 04:45:04;;;;;;;9.57;6.53;;;22.10;1.00;;;;;;5089346;28;20214;-74
2022/07/29 04:47:30;;;;;;;8.63;6.03;;;22.10;1.00;;;;;;5087027;28;20460;-74
2022/07/29 04:49:56;;;;;;;7.00;5.83;;;22.10;1.00;;;;;;5089895;28;20411;-74
2022/07/29 04:52:22;;;;;;;12.20;6.60;;;23.50;1.00;;;;;;5083068;28;20191;-75
2022/07/29 04:54:47;;;;;;;8.57;6.30;;;22.10;1.00;;;;;;5087899;28;20273;-74
2022/07/29 04:57:13;;;;;;;8.60;6.07;;;22.10;1.00;;;;;;5086548;28;20186;-74
2022/07/29 04:59:39;;;;;;;8.60;5.83;;;24.00;1.00;;;;;;5092749;28;20174;-74
2022/07/29 05:02:04;;;;;;;6.73;5.90;;;22.20;1.00;;;;;;5091460;28;20225;-74
2022/07/29 05:04:30;;;;;;;8.27;5.80;;;22.20;1.00;;;;;;5102497;28;20170;-75
2022/07/29 05:06:55;;;;;;;8.23;6.07;;;22.30;1.00;;;;;;5074971;28;20408;-75
2022/07/29 05:09:21;;;;;;;9.37;5.70;;;22.30;1.00;;;;;;5089552;28;20271;-75
2022/07/29 05:11:46;;;;;;;7.93;5.87;;;22.70;1.00;;;;;;5086100;28;20276;-75
2022/07/29 05:14:12;;;;;;;8.00;5.97;;;22.40;1.00;;;;;;5090198;28;20256;-75
2022/07/29 05:16:39;;;;;;;9.23;5.73;;;22.50;1.00;;;;;;5083614;28;20343;-74
2022/07/29 05:19:05;;;;;;;7.53;5.63;;;22.60;1.00;;;;;;5082961;28;20178;-75
2022/07/29 05:21:31;;;;;;;6.60;5.20;;;22.60;1.00;;;;;;5078040;28;20453;-75
2022/07/29 05:23:56;;;;;;;7.80;5.60;;;22.70;1.00;;;;;;5087039;28;20179;-75
2022/07/29 05:26:22;;;;;;;9.63;5.77;;;23.20;1.00;;;;;;5085552;28;20202;-74
2022/07/29 05:28:48;;;;;;;8.67;5.67;;;22.90;1.00;;;;;;5089610;28;20305;-76
2022/07/29 05:31:14;;;;;;;6.63;5.50;;;22.90;1.00;;;;;;5073412;28;20541;-75
2022/07/29 05:33:40;;;;;;;7.20;5.40;;;23.00;1.00;;;;;;5095888;28;20163;-74
2022/07/29 05:36:06;;;;;;;6.70;5.37;;;23.10;1.00;;;;;;5091090;28;20183;-74
2022/07/29 05:38:33;;;;;;;9.60;5.40;;;23.10;1.00;;;;;;5085062;28;20456;-75
2022/07/29 05:40:59;;;;;;;8.33;5.50;;;23.10;1.00;;;;;;5083803;28;20880;-76
2022/07/29 05:43:25;;;;;;;8.83;5.60;;;23.10;1.00;;;;;;5081531;28;20480;-75
2022/07/29 05:45:51;;;;;;;6.23;5.63;;;23.20;1.00;;;;;;5087516;28;20467;-75
2022/07/29 05:48:16;;;;;;;5.90;5.00;;;23.20;1.00;;;;;;5085842;28;20456;-74
2022/07/29 05:50:42;;;;;;;8.23;5.53;;;23.20;1.00;;;;;;5076487;28;20215;-75
2022/07/29 05:53:07;;;;;;;7.33;4.87;;;23.30;1.00;;;;;;5087254;28;20174;-75
2022/07/29 05:55:33;;;;;;;6.90;4.97;;;23.40;1.00;;;;;;5073919;28;20208;-76
2022/07/29 05:57:58;;;;;;;6.03;4.57;;;23.40;1.00;;;;;;5083298;28;20187;-75
2022/07/29 06:00:24;;;;;;;7.93;5.00;;;23.60;1.00;;;;;;5086417;28;20179;-75
2022/07/29 06:02:49;;;;;;;7.17;5.50;;;23.60;1.00;;;;;;5096925;28;20179;-76
2022/07/29 06:05:15;;;;;;;9.33;5.10;;;24.00;1.00;;;;;;5090436;28;20420;-78
2022/07/29 06:07:40;;;;;;;8.20;5.00;;;23.60;1.00;;;;;;5083251;28;20199;-82
2022/07/29 06:10:06;;;;;;;11.13;5.20;;;23.70;1.00;;;;;;5085050;28;20597;-79
2022/07/29 06:12:32;;;;;;;6.57;5.10;;;23.80;1.00;;;;;;5079746;28;20192;-79
2022/07/29 06:14:58;;;;;;;8.77;5.10;;;24.00;1.00;;;;;;5082817;28;20179;-80
2022/07/29 06:17:23;;;;;;;6.43;5.40;;;23.80;1.00;;;;;;5089193;28;20823;-81
2022/07/29 06:19:49;;;;;;;6.07;4.77;;;23.90;1.00;;;;;;5088491;28;20227;-79
2022/07/29 06:22:17;;;;;;;7.40;4.70;;;24.00;1.00;;;;;;5078411;28;20248;-79
2022/07/29 06:24:43;;;;;;;8.43;5.37;;;24.20;1.00;;;;;;5083461;28;20669;-79
2022/07/29 06:27:10;;;;;;;8.67;5.37;;;24.30;1.00;;;;;;5084942;28;20472;-78
2022/07/29 06:29:36;;;;;;;6.50;5.10;;;24.40;1.00;;;;;;5086034;28;20430;-79
2022/07/29 06:32:02;;;;;;;7.63;5.30;;;24.50;1.00;;;;;;5088488;28;20463;-79
2022/07/29 06:34:28;;;;;;;5.80;4.97;;;24.60;1.00;;;;;;5087927;28;20179;-79
2022/07/29 06:36:53;;;;;;;6.20;5.13;;;24.70;1.00;;;;;;5076794;28;20437;-79
2022/07/29 06:39:19;;;;;;;9.93;5.20;;;24.80;1.00;;;;;;5082206;28;20190;-79
2022/07/29 06:41:49;;;;;;;11.97;5.53;;;24.90;1.00;;;;;;5084413;28;20207;-81
2022/07/29 06:44:15;;;;;;;9.30;5.67;;;24.90;1.00;;;;;;5091657;28;20164;-79
2022/07/29 06:46:41;;;;;;;11.00;5.90;;;24.50;1.00;;;;;;5080907;28;20452;-79
2022/07/29 06:49:07;;;;;;;7.57;5.27;;;24.50;1.00;;;;;;5085586;28;20741;-75
2022/07/29 06:51:33;;;;;;;7.93;5.30;;;24.60;1.00;;;;;;5084419;28;20426;-75
2022/07/29 06:53:58;;;;;;;7.67;5.40;;;24.80;1.00;;;;;;5079690;28;20503;-74
2022/07/29 06:56:24;;;;;;;12.47;6.47;;;25.10;1.00;;;;;;5080161;28;20263;-74
2022/07/29 06:58:50;;;;;;;9.47;6.47;;;25.30;1.00;;;;;;5089110;28;20197;-74
2022/07/29 07:01:15;;;;;;;7.40;6.00;;;25.30;1.00;;;;;;5081192;28;20449;-74
2022/07/29 07:03:41;;;;;;;6.90;6.20;;;25.20;1.00;;;;;;5080761;28;20221;-74
2022/07/29 07:06:07;;;;;;;7.10;5.93;;;25.20;1.00;;;;;;5089964;28;20213;-74
2022/07/29 07:08:33;;;;;;;8.30;5.83;;;25.30;1.00;;;;;;5089341;28;20195;-74
2022/07/29 07:10:59;;;;;;;10.27;6.90;;;25.50;1.00;;;;;;5082971;28;20451;-74
2022/07/29 07:13:25;;;;;;;10.57;6.73;;;25.50;1.00;;;;;;5082936;28;20529;-74
2022/07/29 07:15:51;;;;;;;7.90;6.60;;;25.80;1.00;;;;;;5085613;28;20186;-74
2022/07/29 07:18:18;;;;;;;7.97;6.13;;;25.90;1.00;;;;;;5085426;28;20425;-74
2022/07/29 07:20:44;;;;;;;9.47;6.33;;;25.90;1.00;;;;;;5073714;28;20846;-74
2022/07/29 07:23:10;;;;;;;8.13;6.20;;;25.70;1.00;;;;;;5080012;28;20776;-74
2022/07/29 07:25:36;;;;;;;8.27;5.93;;;25.70;1.00;;;;;;5090777;28;20426;-74
2022/07/29 07:28:02;;;;;;;8.27;6.00;;;25.70;1.00;;;;;;5086049;28;20207;-74
2022/07/29 07:30:28;;;;;;;13.07;6.10;;;25.60;1.00;;;;;;5086718;28;20196;-74
2022/07/29 07:32:55;;;;;;;7.60;6.00;;;25.50;1.00;;;;;;5086827;28;20461;-74
2022/07/29 07:35:20;;;;;;;11.50;6.47;;;25.30;1.00;;;;;;5090293;28;20601;-74
2022/07/29 07:37:46;;;;;;;9.30;5.70;;;25.50;1.00;;;;;;5075937;28;20521;-74
2022/07/29 07:40:12;;;;;;;9.93;5.80;;;25.70;1.00;;;;;;5079565;28;20256;-74
2022/07/29 07:42:39;;;;;;;12.20;6.67;;;26.20;1.00;;;;;;5081658;28;20294;-74
2022/07/29 07:45:05;;;;;;;9.40;6.30;;;26.70;1.00;;;;;;5076482;28;20215;-74
2022/07/29 07:47:32;;;;;;;7.13;5.93;;;27.10;1.00;;;;;;5089403;28;20203;-74
2022/07/29 07:49:57;;;;;;;15.40;6.87;;;27.60;1.00;;;;;;5089005;28;20441;-74
2022/07/29 07:52:23;;;;;;;12.87;6.73;;;28.30;1.00;;;;;;5084660;28;20192;-74
2022/07/29 07:54:49;;;;;;;10.20;6.33;;;28.50;1.00;;;;;;5085113;28;20184;-74
2022/07/29 07:57:14;;;;;;;7.77;6.10;;;28.50;1.00;;;;;;5084510;28;20607;-74
2022/07/29 07:59:40;;;;;;;8.63;6.63;;;28.40;1.00;;;;;;5077286;28;20315;-74
2022/07/29 08:02:07;;;;;;;10.70;6.40;;;28.10;1.00;;;;;;5080161;28;20277;-74
2022/07/29 08:04:32;;;;;;;9.13;6.90;;;27.90;1.00;;;;;;5080961;28;20183;-74
2022/07/29 08:06:58;;;;;;;8.20;5.90;;;27.80;1.00;;;;;;5076019;28;20187;-74
2022/07/29 08:09:25;;;;;;;8.40;6.60;;;28.10;1.00;;;;;;5087937;28;20228;-74
2022/07/29 08:11:51;;;;;;;14.83;7.40;;;28.80;1.00;;;;;;5085395;28;20192;-74
2022/07/29 08:14:16;;;;;;;9.50;6.47;;;29.20;1.00;;;;;;5082054;28;20178;-74
2022/07/29 08:16:42;;;;;;;10.53;7.20;;;29.20;1.00;;;;;;5074341;28;20184;-75
2022/07/29 08:19:08;;;;;;;10.50;6.83;;;29.50;1.00;;;;;;5078998;28;20183;-74
2022/07/29 08:21:34;;;;;;;9.23;7.27;;;29.20;1.00;;;;;;5072439;28;20204;-75
2022/07/29 08:26:45;;;;;;;11.47;7.50;;;29.50;1.00;;;;;;5088492;28;20294;-75
2022/07/29 08:29:11;;;;;;;8.13;7.10;;;29.80;1.00;;;;;;5074091;28;20213;-74
2022/07/29 08:31:37;;;;;;;12.00;7.88;;;30.00;1.00;;;;;;5069641;28;20219;-74
2022/07/29 08:34:04;;;;;;;11.30;7.23;;;30.20;1.00;;;;;;5079237;28;20179;-75
2022/07/29 08:36:30;;;;;;;10.00;7.50;;;29.80;1.00;;;;;;5082999;28;20176;-74
2022/07/29 08:38:56;;;;;;;8.33;7.10;;;29.50;1.00;;;;;;5076365;28;20557;-74
2022/07/29 08:41:22;;;;;;;10.93;7.30;;;29.20;1.00;;;;;;5088158;28;20203;-74
2022/07/29 08:43:49;;;;;;;11.33;7.20;;;29.20;1.00;;;;;;5081999;28;20499;-74
2022/07/29 08:46:16;;;;;;;12.80;7.73;;;29.40;1.00;;;;;;5083162;28;20258;-74
2022/07/29 08:48:42;;;;;;;9.65;7.35;;;29.70;1.00;;;;;;5088558;28;20206;-75
2022/07/29 08:51:12;;;;;;;9.43;6.80;;;30.00;1.00;;;;;;5075439;28;20764;-75
2022/07/29 08:53:41;;;;;;;8.73;7.68;;;30.50;1.00;;;;;;5085631;28;20716;-75
2022/07/29 08:56:10;;;;;;;9.32;7.45;;;31.00;1.00;;;;;;5086021;28;20233;-75
2022/07/29 08:58:36;;;;;;;12.18;7.80;;;31.00;1.00;;;;;;5080156;28;20526;-75
2022/07/29 09:01:02;;;;;;;11.00;8.07;;;31.60;1.00;;;;;;5087013;28;20501;-75
2022/07/29 09:03:32;;;;;;;10.13;7.55;;;32.10;1.00;;;;;;5099993;28;20756;-75
2022/07/29 09:05:59;;;;;;;10.63;7.47;;;33.60;1.00;;;;;;5080324;28;20608;-75
2022/07/29 09:08:25;;;;;;;7.78;5.93;;;34.50;1.00;;;;;;5086683;28;20236;-75
2022/07/29 09:10:51;;;;;;;7.57;6.38;;;35.60;1.00;;;;;;5073838;28;20200;-75
2022/07/29 09:13:17;;;;;;;8.32;6.30;;;35.20;1.00;;;;;;5079645;28;20629;-75
2022/07/29 09:15:43;;;;;;;10.70;6.10;;;34.40;1.00;;;;;;5076483;28;20180;-75
2022/07/29 09:18:09;;;;;;;7.35;5.78;;;34.10;1.00;;;;;;5085136;28;20268;-75
2022/07/29 09:23:19;;;;;;;8.93;5.93;;;34.20;1.00;;;;;;5081943;28;20182;-75
2022/07/29 09:25:44;;;;;;;7.13;6.13;;;33.60;1.00;;;;;;5088518;28;20175;-75
2022/07/29 09:28:16;;;;;;;7.05;5.63;;;32.90;1.00;;;;;;5082524;28;20213;-75
2022/07/29 09:30:56;;;;;;;7.93;6.40;;;32.40;1.00;;;;;;5087470;28;20203;-75
2022/07/29 09:33:22;;;;;;;10.00;6.60;;;31.80;1.00;;;;;;5081695;28;20175;-75
2022/07/29 09:36:09;;;;;;;8.35;6.40;;;31.60;1.00;;;;;;5088320;28;20197;-75
2022/07/29 09:38:36;;;;;;;7.40;6.70;;;31.90;1.00;;;;;;5078862;28;20180;-75
2022/07/29 09:41:03;;;;;;;8.98;7.25;;;32.40;1.00;;;;;;5095463;28;20229;-75
2022/07/29 09:43:29;;;;;;;9.48;7.22;;;32.80;1.00;;;;;;5082348;28;20172;-75
2022/07/29 09:45:55;;;;;;;8.38;6.50;;;33.10;1.00;;;;;;5084938;28;20183;-75
2022/07/29 09:48:23;;;;;;;9.70;5.68;;;34.00;1.00;;;;;;5078204;28;20306;-75
2022/07/29 09:50:49;;;;;;;11.98;6.43;;;34.20;1.00;;;;;;5078269;28;20561;-75
2022/07/29 09:53:36;;;;;;;8.90;6.40;;;34.20;1.00;;;;;;5080509;28;20164;-75
2022/07/29 09:56:02;;;;;;;9.35;6.30;;;35.10;1.00;;;;;;5080693;28;20697;-75
2022/07/29 09:58:28;;;;;;;6.88;5.75;;;35.90;1.00;;;;;;5086617;28;20206;-75
2022/07/29 10:00:55;;;;;;;8.80;6.15;;;36.10;1.00;;;;;;5084786;28;20238;-75
2022/07/29 10:03:21;;;;;;;9.25;6.22;;;36.10;1.00;;;;;;5077469;28;20195;-75
2022/07/29 10:06:10;;;;;;;12.52;6.20;;;36.40;1.00;;;;;;5089320;28;20187;-75
2022/07/29 10:08:36;;;;;;;6.25;5.65;;;37.80;1.00;;;;;;5090433;28;20199;-76
2022/07/29 10:11:16;;;;;;;5.72;5.13;;;38.50;1.00;;;;;;5079041;28;20577;-76
2022/07/29 10:13:44;;;;;;;8.52;5.35;;;39.20;1.00;;;;;;5086559;28;20259;-76
2022/07/29 10:16:10;;;;;;;8.65;5.63;;;39.40;1.00;;;;;;5093429;28;20580;-76
2022/07/29 10:18:38;;;;;;;7.93;5.63;;;38.90;1.00;;;;;;5091609;28;20179;-76
2022/07/29 10:21:03;;;;;;;6.40;5.75;;;38.40;1.00;;;;;;5082530;28;20196;-75
2022/07/29 10:23:30;;;;;;;10.75;5.53;;;38.40;1.00;;;;;;5080190;28;20195;-75
2022/07/29 10:25:56;;;;;;;9.02;5.40;;;39.70;1.00;;;;;;5086048;28;20182;-75
2022/07/29 10:28:21;;;;;;;5.85;4.95;;;40.70;1.00;;;;;;5092880;28;20207;-76
2022/07/29 10:30:51;;;;;;;9.43;4.88;;;41.10;1.00;;;;;;5080643;28;20250;-76
2022/07/29 10:33:36;;;;;;;6.88;4.80;;;41.60;1.00;;;;;;5093752;28;20174;-76
2022/07/29 10:36:11;;;;;;;6.53;4.65;;;41.90;1.00;;;;;;5090190;28;20656;-76
2022/07/29 10:38:53;;;;;;;7.82;5.20;;;41.90;1.00;;;;;;5081766;28;20213;-76
2022/07/29 10:42:05;;;;;;;9.73;5.38;;;42.10;1.00;;;;;;5080219;28;20910;-76
2022/07/29 10:44:33;;;;;;;8.48;5.20;;;41.00;1.00;;;;;;5090187;28;20187;-76
2022/07/29 10:46:58;;;;;;;10.13;5.30;;;41.00;1.00;;;;;;5085838;28;20183;-76
2022/07/29 10:49:26;;;;;;;6.78;4.82;;;41.30;1.00;;;;;;5086952;28;20665;-76
2022/07/29 10:52:04;;;;;;;11.45;5.35;;;41.90;1.00;;;;;;5090749;28;20195;-76
2022/07/29 10:54:35;;;;;;;12.27;5.05;;;42.10;1.00;;;;;;5083278;28;20176;-76
2022/07/29 10:57:14;;;;;;;5.95;4.95;;;42.10;1.00;;;;;;5080171;28;20190;-76
2022/07/29 10:59:41;;;;;;;7.55;5.22;;;41.70;1.00;;;;;;5085580;28;20247;-77
2022/07/29 11:02:35;;;;;;;6.18;4.88;;;42.20;1.00;;;;;;5078888;28;20431;-76
2022/07/29 11:05:26;;;;;;;8.95;5.68;;;42.90;1.00;;;;;;5085606;28;20187;-76
2022/07/29 11:08:11;;;;;;;6.32;4.97;;;41.80;1.00;;;;;;5089777;28;20619;-76
2022/07/29 11:10:37;;;;;;;12.52;5.35;;;41.60;1.00;;;;;;5080728;28;20214;-76
2022/07/29 11:13:02;;;;;;;7.82;5.10;;;41.90;1.00;;;;;;5077123;28;20641;-76
2022/07/29 11:15:30;;;;;;;9.00;5.32;;;42.20;1.00;;;;;;5084553;28;20197;-76
2022/07/29 11:17:56;;;;;;;5.30;4.80;;;42.20;1.00;;;;;;5089443;28;20191;-76
2022/07/29 11:20:34;;;;;;;10.57;5.38;;;41.90;1.00;;;;;;5085803;28;20226;-76
2022/07/29 11:23:00;;;;;;;6.45;4.72;;;41.80;1.00;;;;;;5081561;28;20636;-76
2022/07/29 11:25:26;;;;;;;6.95;4.80;;;42.60;1.00;;;;;;5090074;28;20179;-76
2022/07/29 11:27:53;;;;;;;10.07;4.53;;;42.60;1.00;;;;;;5089942;28;20207;-76
2022/07/29 11:30:19;;;;;;;5.25;4.43;;;42.30;1.00;;;;;;5092026;28;20199;-76
2022/07/29 11:32:46;;;;;;;10.35;5.20;;;42.70;1.00;;;;;;5087172;28;20202;-76
2022/07/29 11:35:18;;;;;;;6.00;4.43;;;43.40;1.00;;;;;;5086568;28;20250;-76
2022/07/29 11:37:45;;;;;;;6.57;4.80;;;43.90;1.00;;;;;;5090534;28;20510;-76
2022/07/29 11:40:13;;;;;;;12.13;4.85;;;44.20;1.00;;;;;;5078247;28;20179;-76
2022/07/29 11:42:40;;;;;;;5.70;4.70;;;44.80;1.00;;;;;;5079673;28;20603;-76
2022/07/29 11:45:09;;;;;;;6.88;4.30;;;44.30;1.00;;;;;;5083655;28;20935;-76
2022/07/29 11:47:47;;;;;;;6.45;4.32;;;44.90;1.00;;;;;;5088592;28;20228;-76
2022/07/29 11:50:16;;;;;;;10.60;4.88;;;45.10;1.00;;;;;;5089473;28;20690;-76
2022/07/29 11:52:48;;;;;;;5.63;4.40;;;45.30;1.00;;;;;;5081274;28;20267;-76
2022/07/29 11:55:19;;;;;;;6.13;4.70;;;45.40;1.00;;;;;;5088649;28;20605;-76
2022/07/29 11:57:48;;;;;;;5.65;4.38;;;45.20;1.00;;;;;;5085862;28;20260;-76
2022/07/29 12:00:37;;;;;;;6.57;4.38;;;45.00;1.00;;;;;;5085850;28;20182;-77
2022/07/29 12:03:06;;;;;;;9.25;4.60;;;45.40;1.00;;;;;;5087078;28;20171;-76
2022/07/29 12:05:33;;;;;;;5.32;4.70;;;45.80;1.00;;;;;;5089332;28;20275;-76
2022/07/29 12:08:12;;;;;;;5.47;4.40;;;45.00;1.00;;;;;;5082629;28;20207;-76
2022/07/29 12:10:38;;;;;;;7.03;4.60;;;45.00;1.00;;;;;;5079073;28;20241;-76
2022/07/29 12:13:04;;;;;;;10.20;4.20;;;44.80;1.00;;;;;;5084633;28;20191;-76
2022/07/29 12:15:30;;;;;;;6.20;4.40;;;44.40;1.00;;;;;;5089549;28;20183;-76
2022/07/29 12:17:56;;;;;;;5.03;4.38;;;44.70;1.00;;;;;;5089591;28;20172;-76
2022/07/29 12:20:28;;;;;;;7.70;4.85;;;45.20;1.00;;;;;;5087966;28;20211;-76
2022/07/29 12:22:55;;;;;;;7.65;4.70;;;45.60;1.00;;;;;;5085245;28;20803;-76
2022/07/29 12:25:23;;;;;;;8.25;4.85;;;45.80;1.00;;;;;;5087220;28;20179;-76
2022/07/29 12:27:59;;;;;;;6.07;4.32;;;45.60;1.00;;;;;;5084636;28;20203;-76
2022/07/29 12:30:35;;;;;;;5.95;4.18;;;45.30;1.00;;;;;;5080235;28;20542;-76
2022/07/29 12:33:00;;;;;;;5.80;4.60;;;43.40;1.00;;;;;;5082286;28;20270;-75
2022/07/29 12:35:26;;;;;;;6.80;4.43;;;41.20;1.00;;;;;;5090914;28;20295;-75
2022/07/29 12:37:52;;;;;;;7.78;5.22;;;39.60;1.00;;;;;;5084945;28;20299;-75
2022/07/29 12:40:20;;;;;;;6.72;4.75;;;38.30;1.00;;;;;;5085261;28;20176;-76
2022/07/29 12:43:11;;;;;;;9.50;5.20;;;37.60;1.00;;;;;;5084273;28;20185;-75
2022/07/29 12:45:45;;;;;;;8.05;5.75;;;37.30;1.00;;;;;;5078544;28;20269;-75
2022/07/29 12:48:11;;;;;;;8.55;4.80;;;36.80;1.00;;;;;;5090464;28;20198;-75
2022/07/29 12:50:56;;;;;;;9.85;5.30;;;37.40;1.00;;;;;;5086014;28;20673;-75
2022/07/29 12:53:21;;;;;;;7.10;4.95;;;37.90;1.00;;;;;;5077846;28;20179;-75
2022/07/29 12:55:51;;;;;;;11.43;6.43;;;37.40;1.00;;;;;;5080598;28;20187;-75
2022/07/29 12:58:46;;;;;;;6.55;5.22;;;36.50;1.00;;;;;;5090753;28;20210;-75
2022/07/29 13:01:17;;;;;;;7.25;5.32;;;35.80;1.00;;;;;;5076880;28;20651;-75
2022/07/29 13:03:56;;;;;;;9.15;5.60;;;35.30;1.00;;;;;;5100583;28;20590;-75
2022/07/29 13:06:42;;;;;;;7.38;5.53;;;35.50;1.00;;;;;;5077834;28;20179;-75